Time;durP1;ratioP1;P1;durP2;ratioP2;P2;SDS_P1;SDS_P2;PMS_P1;PMS_P2;Temp;Humidity;BMP_temperature;BMP_pressure;BME280_temperature;BME280_humidity;BME280_pressure;Samples;Min_cycle;Max_cycle;Signal;HPM_P1;HPM_P2
2022/12/03 00:01:11;;;;;;;59.60;37.72;;;4.60;99.90;;;;;;5075575;28;20024;-74
2022/12/03 00:03:37;;;;;;;60.03;38.00;;;4.60;99.90;;;;;;5073336;28;20443;-76
2022/12/03 00:06:03;;;;;;;61.35;37.33;;;4.60;99.90;;;;;;5066464;28;20025;-74
2022/12/03 00:08:29;;;;;;;64.93;38.15;;;4.50;99.90;;;;;;5064598;28;20025;-74
2022/12/03 00:10:54;;;;;;;60.92;35.72;;;4.50;99.90;;;;;;5083371;28;20024;-74
2022/12/03 00:13:20;;;;;;;54.05;34.75;;;4.50;99.90;;;;;;5063431;28;20508;-75
2022/12/03 00:15:46;;;;;;;74.00;45.00;;;4.40;99.90;;;;;;5068880;28;20028;-74
2022/12/03 00:18:12;;;;;;;65.22;42.13;;;4.40;99.90;;;;;;5068608;28;20025;-74
2022/12/03 00:20:38;;;;;;;63.38;38.22;;;4.40;99.90;;;;;;5068435;28;20096;-74
2022/12/03 00:23:04;;;;;;;57.78;36.88;;;4.40;99.90;;;;;;5065152;28;20489;-74
2022/12/03 00:25:29;;;;;;;60.70;36.55;;;4.40;99.90;;;;;;5069143;28;20045;-74
2022/12/03 00:27:55;;;;;;;58.08;35.47;;;4.40;99.90;;;;;;5067100;28;20025;-74
2022/12/03 00:30:21;;;;;;;62.85;37.65;;;4.40;99.90;;;;;;5068262;28;20029;-74
2022/12/03 00:32:48;;;;;;;73.03;42.38;;;4.40;99.90;;;;;;5066073;28;20045;-74
2022/12/03 00:35:13;;;;;;;58.95;36.40;;;4.40;99.90;;;;;;5068411;28;20031;-74
2022/12/03 00:37:39;;;;;;;49.72;32.92;;;4.40;99.90;;;;;;5071312;28;20017;-74
2022/12/03 00:40:06;;;;;;;54.15;35.10;;;4.40;99.90;;;;;;5067443;28;20020;-74
2022/12/03 00:42:32;;;;;;;52.47;31.52;;;4.50;99.90;;;;;;5059644;28;20075;-74
2022/12/03 00:44:58;;;;;;;51.90;32.40;;;4.40;99.90;;;;;;5067995;28;20082;-74
2022/12/03 00:47:24;;;;;;;58.78;35.13;;;4.40;99.90;;;;;;5072903;28;20044;-74
2022/12/03 00:49:49;;;;;;;51.97;33.05;;;4.40;99.90;;;;;;5066235;28;20457;-74
2022/12/03 00:52:15;;;;;;;60.10;36.85;;;4.40;99.90;;;;;;5070885;28;20025;-74
2022/12/03 00:54:41;;;;;;;58.22;37.38;;;4.40;99.90;;;;;;5064789;28;20037;-74
2022/12/03 00:57:07;;;;;;;56.13;35.95;;;4.40;99.90;;;;;;5068414;28;20025;-74
2022/12/03 00:59:33;;;;;;;62.83;37.25;;;4.40;99.90;;;;;;5069100;28;20029;-73
2022/12/03 01:01:59;;;;;;;61.33;36.28;;;4.50;99.90;;;;;;5072953;28;20035;-74
2022/12/03 01:04:24;;;;;;;68.38;38.90;;;4.40;99.90;;;;;;5072976;28;20397;-75
2022/12/03 01:06:50;;;;;;;62.72;37.70;;;4.50;99.90;;;;;;5060307;28;20051;-74
2022/12/03 01:09:16;;;;;;;64.15;38.50;;;4.50;99.90;;;;;;5063583;28;20037;-74
2022/12/03 01:11:42;;;;;;;71.60;39.33;;;4.50;99.90;;;;;;5071713;28;20118;-74
2022/12/03 01:14:13;;;;;;;62.88;39.53;;;4.50;99.90;;;;;;5069059;28;20040;-74
2022/12/03 01:16:40;;;;;;;66.43;38.42;;;4.50;99.90;;;;;;5071271;28;20577;-74
2022/12/03 01:19:06;;;;;;;61.45;37.45;;;4.50;99.90;;;;;;5067755;28;20029;-74
2022/12/03 01:21:33;;;;;;;58.53;36.00;;;4.50;99.90;;;;;;5083882;28;20032;-74
2022/12/03 01:23:59;;;;;;;61.20;38.65;;;4.50;99.90;;;;;;5058673;28;20711;-74
2022/12/03 01:26:25;;;;;;;61.70;38.30;;;4.50;99.90;;;;;;5070093;28;20052;-74
2022/12/03 01:28:52;;;;;;;64.68;38.78;;;4.50;99.90;;;;;;5065417;28;20444;-74
2022/12/03 01:34:02;;;;;;;58.50;36.60;;;4.50;99.90;;;;;;5066033;28;20558;-74
2022/12/03 01:36:28;;;;;;;60.60;37.65;;;4.50;99.90;;;;;;5064945;28;20029;-74
2022/12/03 01:38:54;;;;;;;66.35;37.35;;;4.50;99.90;;;;;;5061104;28;20041;-74
2022/12/03 01:41:22;;;;;;;53.65;35.70;;;4.50;99.90;;;;;;5063323;28;20070;-74
2022/12/03 01:43:50;;;;;;;62.25;35.63;;;4.50;99.90;;;;;;5059530;28;20029;-74
2022/12/03 01:46:21;;;;;;;57.10;36.72;;;4.50;99.90;;;;;;5071561;28;20020;-74
2022/12/03 01:48:49;;;;;;;60.15;34.35;;;4.60;99.90;;;;;;5064544;28;20036;-74
2022/12/03 01:51:15;;;;;;;58.33;35.70;;;4.50;99.90;;;;;;5071316;28;20022;-75
2022/12/03 01:53:42;;;;;;;56.10;35.30;;;4.50;99.90;;;;;;5066730;28;20646;-74
2022/12/03 01:56:11;;;;;;;53.70;36.22;;;4.50;99.90;;;;;;5072276;28;20038;-74
2022/12/03 01:58:38;;;;;;;56.40;35.55;;;4.50;99.90;;;;;;5064697;28;20461;-75
2022/12/03 02:01:10;;;;;;;61.25;38.03;;;4.50;99.90;;;;;;5073658;28;20024;-74
2022/12/03 02:03:36;;;;;;;62.13;38.67;;;4.50;99.90;;;;;;5073159;28;20018;-74
2022/12/03 02:06:02;;;;;;;63.03;40.00;;;4.50;99.90;;;;;;5067207;28;20054;-74
2022/12/03 02:08:37;;;;;;;60.22;38.45;;;4.40;99.90;;;;;;5069158;28;20029;-74
2022/12/03 02:11:08;;;;;;;59.47;39.30;;;4.50;99.90;;;;;;5086736;28;20031;-74
2022/12/03 02:13:35;;;;;;;57.42;39.30;;;4.50;99.90;;;;;;5058327;28;20029;-75
2022/12/03 02:16:01;;;;;;;61.03;37.97;;;4.50;99.90;;;;;;5076431;28;20021;-74
2022/12/03 02:18:27;;;;;;;59.85;37.97;;;4.50;99.90;;;;;;5066710;28;20122;-74
2022/12/03 02:21:05;;;;;;;58.90;38.67;;;4.50;99.90;;;;;;5069488;28;20020;-74
2022/12/03 02:23:37;;;;;;;54.85;36.25;;;4.50;99.90;;;;;;5073147;28;20404;-74
2022/12/03 02:26:03;;;;;;;55.55;36.92;;;4.50;99.90;;;;;;5069215;28;20044;-75
2022/12/03 02:28:29;;;;;;;58.58;37.30;;;4.50;99.90;;;;;;5072194;28;20393;-74
2022/12/03 02:30:55;;;;;;;64.78;41.13;;;4.50;99.90;;;;;;5061174;28;20107;-74
2022/12/03 02:33:21;;;;;;;72.90;41.22;;;4.40;99.90;;;;;;5067904;28;20052;-74
2022/12/03 02:35:48;;;;;;;58.72;39.10;;;4.40;99.90;;;;;;5063289;28;20039;-74
2022/12/03 02:38:21;;;;;;;59.70;39.17;;;4.40;99.90;;;;;;5069639;28;20020;-74
2022/12/03 02:40:51;;;;;;;61.97;39.95;;;4.40;99.90;;;;;;5063709;28;20033;-74
2022/12/03 02:43:19;;;;;;;67.95;40.22;;;4.40;99.90;;;;;;5060962;28;20119;-74
2022/12/03 02:45:49;;;;;;;68.15;39.83;;;4.40;99.90;;;;;;5061466;28;20017;-74
2022/12/03 02:48:26;;;;;;;63.43;38.43;;;4.40;99.90;;;;;;5062594;28;20405;-74
2022/12/03 02:51:00;;;;;;;66.07;41.63;;;4.40;99.90;;;;;;5070445;28;20031;-74
2022/12/03 02:53:29;;;;;;;70.65;39.17;;;4.40;99.90;;;;;;5066965;28;20033;-74
2022/12/03 02:55:59;;;;;;;60.33;36.93;;;4.40;99.90;;;;;;5070074;28;20027;-74
2022/12/03 02:58:28;;;;;;;63.00;36.50;;;4.40;99.90;;;;;;5063611;28;20037;-74
2022/12/03 03:00:55;;;;;;;58.17;36.40;;;4.40;99.90;;;;;;5067185;28;20147;-74
2022/12/03 03:03:23;;;;;;;59.28;38.15;;;4.40;99.90;;;;;;5061172;28;20040;-74
2022/12/03 03:05:49;;;;;;;67.93;39.28;;;4.40;99.90;;;;;;5067719;28;20515;-74
2022/12/03 03:08:17;;;;;;;56.00;36.78;;;4.40;99.90;;;;;;5070065;28;20107;-74
2022/12/03 03:10:45;;;;;;;59.50;36.42;;;4.40;99.90;;;;;;5064757;28;20032;-75
2022/12/03 03:13:14;;;;;;;60.85;36.47;;;4.40;99.90;;;;;;5071079;28;20037;-75
2022/12/03 03:15:41;;;;;;;54.80;35.88;;;4.40;99.90;;;;;;5078194;28;20027;-75
2022/12/03 03:18:08;;;;;;;61.80;36.25;;;4.40;99.90;;;;;;5068178;28;20552;-75
2022/12/03 03:20:35;;;;;;;57.22;35.40;;;4.40;99.90;;;;;;5073798;28;20480;-75
2022/12/03 03:23:22;;;;;;;59.78;35.15;;;4.40;99.90;;;;;;5071173;28;20029;-75
2022/12/03 03:25:56;;;;;;;60.17;37.35;;;4.40;99.90;;;;;;5074520;28;20040;-74
2022/12/03 03:28:23;;;;;;;61.83;37.47;;;4.40;99.90;;;;;;5074378;28;20103;-74
2022/12/03 03:30:50;;;;;;;61.33;36.83;;;4.30;99.90;;;;;;5072830;28;20074;-74
2022/12/03 03:33:16;;;;;;;64.03;37.83;;;4.30;99.90;;;;;;5062537;28;20381;-75
2022/12/03 03:35:43;;;;;;;61.47;38.28;;;4.30;99.90;;;;;;5064383;28;20115;-75
2022/12/03 03:38:09;;;;;;;62.60;39.00;;;4.30;99.90;;;;;;5073302;28;20028;-75
2022/12/03 03:40:37;;;;;;;62.58;38.72;;;4.30;99.90;;;;;;5066114;28;20017;-74
2022/12/03 03:43:04;;;;;;;64.80;38.38;;;4.30;99.90;;;;;;5070692;28;20032;-74
2022/12/03 03:45:29;;;;;;;67.20;40.05;;;4.30;99.90;;;;;;5067080;28;20053;-74
2022/12/03 03:47:57;;;;;;;61.80;39.95;;;4.30;99.90;;;;;;5071041;28;20058;-74
2022/12/03 03:50:24;;;;;;;64.00;39.83;;;4.30;99.90;;;;;;5062325;28;20087;-75
2022/12/03 03:52:50;;;;;;;64.10;39.45;;;4.30;99.90;;;;;;5071361;28;20040;-75
2022/12/03 03:55:17;;;;;;;66.88;42.13;;;4.30;99.90;;;;;;5070733;28;20049;-75
2022/12/03 03:57:44;;;;;;;66.30;39.95;;;4.30;99.90;;;;;;5071199;28;20024;-75
2022/12/03 04:00:10;;;;;;;60.67;38.53;;;4.30;99.90;;;;;;5072212;28;20021;-75
2022/12/03 04:02:37;;;;;;;63.15;40.70;;;4.30;99.90;;;;;;5069787;28;20029;-75
2022/12/03 04:05:03;;;;;;;66.47;38.70;;;4.30;99.90;;;;;;5072715;28;20047;-75
2022/12/03 04:07:29;;;;;;;60.28;38.72;;;4.30;99.90;;;;;;5057829;28;20468;-75
2022/12/03 04:09:54;;;;;;;64.65;40.45;;;4.20;99.90;;;;;;5065868;28;20025;-75
2022/12/03 04:15:05;;;;;;;68.20;40.42;;;4.20;99.90;;;;;;5075737;28;20035;-75
2022/12/03 04:17:31;;;;;;;68.40;40.17;;;4.20;99.90;;;;;;5069745;28;20089;-75
2022/12/03 04:19:56;;;;;;;66.30;40.03;;;4.20;99.90;;;;;;5069445;28;20112;-75
2022/12/03 04:22:40;;;;;;;69.95;41.33;;;4.20;99.90;;;;;;5068359;28;20035;-74
2022/12/03 04:30:37;;;;;;;62.55;38.85;;;4.20;99.90;;;;;;5071406;28;20116;-74
2022/12/03 04:35:48;;;;;;;67.00;40.33;;;4.20;99.90;;;;;;5067532;28;20036;-74
2022/12/03 04:38:15;;;;;;;65.75;39.03;;;4.30;99.90;;;;;;5072203;28;20032;-75
2022/12/03 04:41:03;;;;;;;68.00;39.65;;;4.30;99.90;;;;;;5070205;28;20086;-75
2022/12/03 04:43:32;;;;;;;59.33;36.85;;;4.30;99.90;;;;;;5061383;28;20047;-74
2022/12/03 04:45:58;;;;;;;64.72;40.25;;;4.30;99.90;;;;;;5065967;28;20025;-75
2022/12/03 04:48:24;;;;;;;59.78;38.25;;;4.30;99.90;;;;;;5066462;28;20063;-74
2022/12/03 04:50:50;;;;;;;66.88;39.42;;;4.30;99.90;;;;;;5064812;28;20865;-75
2022/12/03 04:53:16;;;;;;;59.63;38.55;;;4.30;99.90;;;;;;5067943;28;20078;-75
2022/12/03 04:55:41;;;;;;;62.13;38.95;;;4.40;99.90;;;;;;5072532;28;20029;-75
2022/12/03 04:58:07;;;;;;;60.83;37.53;;;4.30;99.90;;;;;;5068950;28;20492;-75
2022/12/03 05:00:33;;;;;;;56.97;35.95;;;4.40;99.90;;;;;;5086744;28;20025;-74
2022/12/03 05:02:59;;;;;;;58.97;39.08;;;4.40;99.90;;;;;;5067476;28;20056;-74
2022/12/03 05:05:25;;;;;;;61.47;35.05;;;4.40;99.90;;;;;;5070349;28;20024;-74
2022/12/03 05:07:50;;;;;;;59.38;36.92;;;4.40;99.90;;;;;;5058957;28;20032;-75
2022/12/03 05:10:16;;;;;;;55.15;33.67;;;4.40;99.90;;;;;;5071369;28;20020;-74
2022/12/03 05:12:42;;;;;;;55.70;35.40;;;4.40;99.90;;;;;;5064935;28;20477;-74
2022/12/03 05:15:08;;;;;;;56.95;36.60;;;4.40;99.90;;;;;;5075357;28;20024;-74
2022/12/03 05:17:34;;;;;;;52.53;33.00;;;4.40;99.90;;;;;;5068309;28;20036;-74
2022/12/03 05:22:44;;;;;;;52.40;33.38;;;4.50;99.90;;;;;;5066314;28;20047;-74
2022/12/03 05:25:10;;;;;;;59.22;34.38;;;4.40;99.90;;;;;;5069675;28;20528;-74
2022/12/03 05:27:35;;;;;;;59.83;33.63;;;4.40;99.90;;;;;;5064918;28;20071;-74
2022/12/03 05:30:01;;;;;;;49.30;32.58;;;4.40;99.90;;;;;;5064791;28;20029;-75
2022/12/03 05:32:27;;;;;;;61.35;33.47;;;4.40;99.90;;;;;;5058504;28;20028;-74
2022/12/03 05:34:53;;;;;;;55.72;34.17;;;4.40;99.90;;;;;;5065098;28;20070;-74
2022/12/03 05:37:19;;;;;;;54.17;34.25;;;4.40;99.90;;;;;;5076331;28;20477;-74
2022/12/03 05:39:45;;;;;;;57.75;32.75;;;4.40;99.90;;;;;;5066439;28;20020;-75
2022/12/03 05:44:55;;;;;;;53.63;32.90;;;4.40;99.90;;;;;;5064084;28;20393;-74
2022/12/03 05:47:20;;;;;;;52.13;32.83;;;4.40;99.90;;;;;;5082692;28;20021;-74
2022/12/03 05:49:46;;;;;;;60.45;32.65;;;4.40;99.90;;;;;;5061116;28;20021;-75
2022/12/03 05:52:12;;;;;;;47.08;29.75;;;4.40;99.90;;;;;;5070182;28;20029;-74
2022/12/03 05:54:38;;;;;;;54.20;33.60;;;4.40;99.90;;;;;;5065677;28;20632;-75
2022/12/03 05:57:04;;;;;;;51.80;32.55;;;4.40;99.90;;;;;;5070038;28;20508;-75
2022/12/03 05:59:29;;;;;;;51.90;32.08;;;4.40;99.90;;;;;;5068719;28;20028;-74
2022/12/03 06:01:55;;;;;;;54.80;33.05;;;4.40;99.90;;;;;;5070690;28;20107;-74
2022/12/03 06:04:21;;;;;;;58.53;33.47;;;4.30;99.90;;;;;;5061500;28;20021;-74
2022/12/03 06:06:47;;;;;;;48.83;30.52;;;4.40;99.90;;;;;;5057862;28;20146;-75
2022/12/03 06:09:13;;;;;;;50.88;32.22;;;4.40;99.90;;;;;;5059660;28;20025;-75
2022/12/03 06:11:39;;;;;;;53.90;32.75;;;4.40;99.90;;;;;;5070078;28;20044;-75
2022/12/03 06:14:05;;;;;;;52.75;32.25;;;4.40;99.90;;;;;;5072699;28;20043;-75
2022/12/03 06:16:31;;;;;;;46.42;30.35;;;4.40;99.90;;;;;;5075185;28;20029;-74
2022/12/03 06:18:56;;;;;;;50.17;31.05;;;4.30;99.90;;;;;;5069755;28;20028;-75
2022/12/03 06:21:22;;;;;;;49.55;31.90;;;4.30;99.90;;;;;;5070639;28;20036;-75
2022/12/03 06:23:48;;;;;;;50.33;30.75;;;4.30;99.90;;;;;;5064933;28;20085;-75
2022/12/03 06:26:14;;;;;;;53.50;33.00;;;4.30;99.90;;;;;;5067302;28;20091;-75
2022/12/03 06:28:45;;;;;;;51.90;32.90;;;4.30;99.90;;;;;;5060998;28;20025;-75
2022/12/03 06:31:11;;;;;;;51.45;31.63;;;4.30;99.90;;;;;;5069128;28;20036;-75
2022/12/03 06:33:37;;;;;;;51.58;33.42;;;4.30;99.90;;;;;;5064068;28;20029;-75
2022/12/03 06:36:03;;;;;;;58.53;35.83;;;4.30;99.90;;;;;;5071361;28;20032;-75
2022/12/03 06:38:29;;;;;;;53.25;32.60;;;4.30;99.90;;;;;;5072128;28;20025;-75
2022/12/03 06:40:55;;;;;;;59.97;34.55;;;4.40;99.90;;;;;;5069775;28;20028;-75
2022/12/03 06:43:21;;;;;;;57.35;34.08;;;4.30;99.90;;;;;;5072541;28;20080;-75
2022/12/03 06:45:46;;;;;;;55.67;33.80;;;4.30;99.90;;;;;;5068437;28;20021;-75
2022/12/03 06:48:12;;;;;;;58.72;35.88;;;4.30;99.90;;;;;;5075263;28;20027;-75
2022/12/03 06:50:38;;;;;;;64.93;40.28;;;4.20;99.90;;;;;;5073259;28;20534;-75
2022/12/03 06:53:04;;;;;;;60.55;37.90;;;4.20;99.90;;;;;;5068092;28;20029;-75
2022/12/03 06:55:29;;;;;;;60.88;36.58;;;4.20;99.90;;;;;;5072237;28;20060;-75
2022/12/03 06:57:55;;;;;;;59.78;36.33;;;4.20;99.90;;;;;;5070695;28;20028;-75
2022/12/03 07:00:21;;;;;;;51.47;33.13;;;4.20;99.90;;;;;;5075418;28;20027;-74
2022/12/03 07:02:47;;;;;;;59.72;35.97;;;4.20;99.90;;;;;;5075999;28;20024;-74
2022/12/03 07:05:13;;;;;;;59.90;35.25;;;4.20;99.90;;;;;;5073128;28;20025;-75
2022/12/03 07:07:39;;;;;;;53.40;33.25;;;4.20;99.90;;;;;;5060322;28;20025;-76
2022/12/03 07:10:05;;;;;;;57.55;32.47;;;4.20;99.90;;;;;;5075763;28;20074;-75
2022/12/03 07:12:31;;;;;;;52.42;33.35;;;4.10;99.90;;;;;;5074142;28;20020;-75
2022/12/03 07:14:57;;;;;;;47.60;29.98;;;4.10;99.90;;;;;;5071287;28;20025;-75
2022/12/03 07:17:23;;;;;;;50.40;30.88;;;4.10;99.90;;;;;;5074408;28;20028;-74
2022/12/03 07:19:49;;;;;;;50.13;31.73;;;4.00;99.90;;;;;;5068122;28;20032;-75
2022/12/03 07:22:15;;;;;;;53.88;33.08;;;4.10;99.90;;;;;;5072672;28;20025;-74
2022/12/03 07:24:41;;;;;;;54.65;33.90;;;4.10;99.90;;;;;;5073798;28;20425;-74
2022/12/03 07:27:07;;;;;;;258.63;127.38;;;4.10;99.90;;;;;;5077680;28;20028;-74
2022/12/03 07:29:33;;;;;;;169.63;82.53;;;4.10;99.90;;;;;;5068682;28;20029;-75
2022/12/03 07:31:59;;;;;;;572.40;277.73;;;4.10;99.90;;;;;;5075133;28;20067;-75
2022/12/03 07:34:24;;;;;;;209.77;89.63;;;4.10;99.90;;;;;;5066083;28;20039;-75
2022/12/03 07:36:50;;;;;;;222.82;109.57;;;4.10;99.90;;;;;;5074973;28;20029;-75
2022/12/03 07:39:16;;;;;;;396.42;244.38;;;4.10;99.90;;;;;;5067048;28;20485;-75
2022/12/03 07:41:42;;;;;;;336.70;204.32;;;4.10;99.90;;;;;;5071568;28;20057;-76
2022/12/03 07:44:08;;;;;;;148.32;92.70;;;4.10;99.90;;;;;;5070236;28;20044;-75
2022/12/03 07:46:33;;;;;;;108.65;69.60;;;4.10;99.90;;;;;;5075049;28;20051;-75
2022/12/03 07:48:59;;;;;;;69.60;40.67;;;4.10;99.90;;;;;;5073393;28;20024;-75
2022/12/03 07:51:25;;;;;;;99.63;66.07;;;4.10;99.90;;;;;;5075256;28;20523;-75
2022/12/03 07:53:51;;;;;;;85.25;57.00;;;4.10;99.90;;;;;;5069839;28;20029;-75
2022/12/03 07:56:17;;;;;;;254.27;138.50;;;4.10;99.90;;;;;;5073830;28;20040;-75
2022/12/03 07:58:43;;;;;;;57.15;37.35;;;4.10;99.90;;;;;;5069463;28;20426;-75
2022/12/03 08:01:09;;;;;;;59.88;37.20;;;4.10;99.90;;;;;;5064630;28;20048;-75
2022/12/03 08:03:35;;;;;;;70.20;36.75;;;4.10;99.90;;;;;;5069400;28;20025;-75
2022/12/03 08:06:01;;;;;;;68.85;39.15;;;4.10;99.90;;;;;;5072568;28;20031;-75
2022/12/03 08:08:27;;;;;;;66.43;44.72;;;4.20;99.90;;;;;;5065004;28;20028;-75
2022/12/03 08:10:52;;;;;;;68.03;42.53;;;4.20;99.90;;;;;;5065097;28;20062;-75
2022/12/03 08:13:18;;;;;;;66.50;41.25;;;4.30;99.90;;;;;;5066278;28;20400;-75
2022/12/03 08:15:45;;;;;;;57.83;36.92;;;4.30;99.90;;;;;;5066937;28;20067;-76
2022/12/03 08:18:18;;;;;;;65.78;39.78;;;4.40;99.90;;;;;;5069828;28;20392;-75
2022/12/03 08:20:47;;;;;;;60.30;36.47;;;4.40;99.90;;;;;;5065146;28;20119;-73
2022/12/03 08:23:18;;;;;;;57.28;34.30;;;4.40;99.90;;;;;;5071558;28;20024;-75
2022/12/03 08:25:45;;;;;;;63.22;36.88;;;4.40;99.90;;;;;;5066724;28;20123;-75
2022/12/03 08:28:20;;;;;;;59.20;37.67;;;4.30;99.90;;;;;;5066183;28;20033;-74
2022/12/03 08:31:11;;;;;;;53.80;36.00;;;4.30;99.90;;;;;;5069566;28;20017;-74
2022/12/03 08:33:39;;;;;;;62.00;33.15;;;4.30;99.90;;;;;;5068028;28;20463;-73
2022/12/03 08:36:17;;;;;;;59.92;38.13;;;4.40;99.90;;;;;;5069644;28;20024;-76
2022/12/03 08:39:09;;;;;;;51.55;32.08;;;4.40;99.90;;;;;;5064159;28;20029;-74
2022/12/03 08:44:31;;;;;;;57.78;35.35;;;4.50;99.90;;;;;;5070423;28;20059;-74
2022/12/03 08:47:19;;;;;;;54.38;35.15;;;4.50;99.90;;;;;;5075277;28;20017;-74
2022/12/03 08:49:56;;;;;;;50.33;30.67;;;4.50;99.90;;;;;;5069179;28;20077;-74
2022/12/03 08:52:30;;;;;;;45.67;30.13;;;4.50;99.90;;;;;;5074248;28;20452;-74
2022/12/03 08:54:56;;;;;;;53.70;33.53;;;4.50;99.90;;;;;;5069051;28;20036;-75
2022/12/03 08:57:24;;;;;;;55.33;33.25;;;4.60;99.90;;;;;;5072436;28;20025;-76
2022/12/03 08:59:55;;;;;;;55.78;32.42;;;4.60;99.90;;;;;;5069657;28;20028;-74
2022/12/03 09:02:31;;;;;;;50.70;33.85;;;4.60;99.90;;;;;;5070198;28;20028;-74
2022/12/03 09:04:57;;;;;;;44.58;29.58;;;4.60;99.90;;;;;;5061844;28;20060;-74
2022/12/03 09:07:23;;;;;;;48.70;31.58;;;4.70;99.90;;;;;;5063117;28;20040;-76
2022/12/03 09:09:49;;;;;;;46.17;29.45;;;4.70;99.90;;;;;;5071720;28;20055;-73
2022/12/03 09:12:15;;;;;;;44.40;29.63;;;4.80;99.90;;;;;;5067495;28;20028;-75
2022/12/03 09:14:40;;;;;;;42.05;27.20;;;4.90;99.90;;;;;;5073130;28;20029;-75
2022/12/03 09:17:06;;;;;;;43.33;28.15;;;5.00;99.90;;;;;;5069903;28;20389;-75
2022/12/03 09:19:32;;;;;;;42.78;25.45;;;5.20;99.90;;;;;;5062524;28;20523;-73
2022/12/03 09:21:58;;;;;;;39.03;26.25;;;5.30;99.90;;;;;;5073958;28;20055;-73
2022/12/03 09:24:24;;;;;;;33.05;23.42;;;5.40;99.90;;;;;;5073822;28;20197;-75
2022/12/03 09:26:50;;;;;;;32.22;23.67;;;5.50;99.90;;;;;;5073517;28;20028;-74
2022/12/03 09:29:16;;;;;;;31.83;21.13;;;5.50;99.90;;;;;;5073309;28;20029;-75
2022/12/03 09:31:41;;;;;;;310.35;149.30;;;5.50;99.90;;;;;;5068226;28;20024;-73
2022/12/03 09:34:08;;;;;;;240.05;116.82;;;5.60;99.90;;;;;;5064210;28;20055;-73
2022/12/03 09:36:33;;;;;;;33.90;21.85;;;5.60;99.90;;;;;;5069549;28;20848;-73
2022/12/03 09:38:59;;;;;;;250.73;116.50;;;5.60;99.90;;;;;;5067580;28;20094;-75
2022/12/03 09:41:26;;;;;;;30.05;20.58;;;5.70;99.90;;;;;;5068228;28;20563;-75
2022/12/03 09:43:52;;;;;;;33.80;21.85;;;5.80;99.90;;;;;;5068569;28;20025;-74
2022/12/03 09:46:19;;;;;;;33.92;21.80;;;5.80;99.90;;;;;;5069952;28;20427;-75
2022/12/03 09:48:45;;;;;;;28.23;20.15;;;5.90;99.90;;;;;;5070093;28;20104;-76
2022/12/03 09:51:11;;;;;;;32.75;22.67;;;6.00;99.90;;;;;;5065364;28;20067;-76
2022/12/03 09:53:38;;;;;;;356.58;240.85;;;6.10;99.90;;;;;;5071399;28;20412;-75
2022/12/03 09:56:04;;;;;;;45.22;30.02;;;6.30;99.90;;;;;;5074804;28;20031;-74
2022/12/03 09:58:30;;;;;;;36.25;25.15;;;6.50;99.90;;;;;;5067979;28;20085;-75
2022/12/03 10:00:56;;;;;;;31.20;21.45;;;6.50;99.90;;;;;;5072198;28;20635;-76
2022/12/03 10:03:27;;;;;;;25.98;18.77;;;6.70;99.90;;;;;;5069622;28;20035;-76
2022/12/03 10:05:53;;;;;;;24.70;17.85;;;6.80;99.90;;;;;;5075341;28;20485;-75
2022/12/03 10:08:21;;;;;;;22.88;16.80;;;7.00;99.90;;;;;;5073094;28;20033;-76
2022/12/03 10:10:51;;;;;;;21.15;15.55;;;7.10;99.90;;;;;;5079321;28;20012;-76
2022/12/03 10:13:27;;;;;;;21.92;17.15;;;7.20;99.90;;;;;;5073644;28;20029;-77
2022/12/03 10:15:56;;;;;;;24.13;17.55;;;7.30;99.90;;;;;;5078704;28;20481;-75
2022/12/03 10:18:24;;;;;;;19.13;13.45;;;7.30;99.90;;;;;;5073980;28;20397;-76
2022/12/03 10:20:52;;;;;;;19.90;14.77;;;7.40;99.90;;;;;;5071667;28;20119;-77
2022/12/03 10:23:24;;;;;;;15.80;12.20;;;7.40;99.90;;;;;;5072784;28;20028;-75
2022/12/03 10:25:54;;;;;;;17.45;13.38;;;7.30;99.90;;;;;;5077730;28;20385;-77
2022/12/03 10:28:35;;;;;;;19.33;14.47;;;7.40;99.90;;;;;;5072139;28;20485;-77
2022/12/03 10:31:04;;;;;;;18.73;14.90;;;7.50;99.90;;;;;;5076443;28;20025;-77
2022/12/03 10:33:34;;;;;;;19.15;14.57;;;7.50;99.90;;;;;;5073914;28;20033;-76
2022/12/03 10:36:22;;;;;;;19.52;14.93;;;7.60;99.90;;;;;;5070966;28;20029;-77
2022/12/03 10:39:12;;;;;;;22.40;15.70;;;7.70;99.90;;;;;;5066662;28;20028;-76
2022/12/03 10:41:40;;;;;;;18.40;12.88;;;7.80;99.90;;;;;;5068403;28;20403;-78
2022/12/03 10:44:16;;;;;;;19.73;14.27;;;7.90;99.90;;;;;;5067043;28;20037;-76
2022/12/03 10:46:43;;;;;;;18.30;14.07;;;8.00;99.90;;;;;;5072452;28;20020;-76
2022/12/03 10:49:17;;;;;;;21.33;14.20;;;8.00;99.90;;;;;;5071591;28;20024;-76
2022/12/03 10:51:47;;;;;;;19.20;13.32;;;8.10;99.90;;;;;;5075008;28;20465;-76
2022/12/03 10:54:21;;;;;;;15.90;11.40;;;8.00;99.90;;;;;;5070410;28;20079;-74
2022/12/03 10:56:49;;;;;;;13.52;9.98;;;8.10;99.90;;;;;;5070687;28;20032;-74
2022/12/03 10:59:22;;;;;;;14.63;9.93;;;8.20;99.90;;;;;;5074577;28;20129;-74
2022/12/03 11:01:48;;;;;;;13.40;9.77;;;8.40;99.90;;;;;;5066554;28;20052;-74
2022/12/03 11:04:35;;;;;;;15.52;10.88;;;8.40;99.90;;;;;;5064819;28;20024;-76
2022/12/03 11:07:05;;;;;;;14.45;10.25;;;8.20;99.90;;;;;;5074311;28;20016;-75
2022/12/03 11:09:32;;;;;;;16.27;12.85;;;8.40;99.90;;;;;;5075896;28;20028;-75
2022/12/03 11:12:16;;;;;;;21.83;19.30;;;8.50;99.90;;;;;;5072898;28;20029;-75
2022/12/03 11:14:55;;;;;;;16.75;12.32;;;8.70;99.90;;;;;;5068855;28;20025;-75
2022/12/03 11:17:40;;;;;;;60.65;54.22;;;8.60;99.90;;;;;;5069514;28;20104;-75
2022/12/03 11:20:24;;;;;;;18.50;14.45;;;8.60;99.90;;;;;;5074906;28;20082;-75
2022/12/03 11:22:52;;;;;;;21.48;17.80;;;8.70;99.90;;;;;;5074289;28;20082;-79
2022/12/03 11:25:24;;;;;;;12.70;10.23;;;8.70;99.90;;;;;;5071679;28;20096;-81
2022/12/03 11:28:12;;;;;;;13.43;11.13;;;8.80;99.90;;;;;;5069633;28;20016;-77
2022/12/03 11:30:50;;;;;;;16.40;11.57;;;8.90;99.90;;;;;;5073243;28;20027;-82
2022/12/03 11:33:23;;;;;;;13.05;10.38;;;8.80;99.90;;;;;;5069338;28;20370;-77
2022/12/03 11:36:01;;;;;;;18.25;15.15;;;8.60;99.90;;;;;;5076790;28;20374;-77
2022/12/03 11:38:36;;;;;;;16.33;12.98;;;8.30;99.90;;;;;;5072568;28;20028;-78
2022/12/03 11:41:19;;;;;;;14.45;11.02;;;8.40;99.90;;;;;;5071489;28;20377;-77
2022/12/03 11:43:55;;;;;;;12.73;9.63;;;8.40;99.90;;;;;;5070040;28;20154;-77
2022/12/03 11:46:34;;;;;;;17.02;11.23;;;8.30;99.90;;;;;;5076151;28;20017;-77
2022/12/03 11:49:00;;;;;;;12.95;10.70;;;8.30;99.90;;;;;;5072042;28;20025;-77
2022/12/03 11:51:29;;;;;;;17.50;13.27;;;8.30;99.90;;;;;;5074662;28;20024;-77
2022/12/03 11:53:57;;;;;;;16.05;10.68;;;8.40;99.90;;;;;;5070552;28;20079;-77
2022/12/03 11:56:27;;;;;;;17.90;12.07;;;8.50;99.90;;;;;;5075770;28;20393;-77
2022/12/03 11:59:01;;;;;;;16.20;11.63;;;8.50;99.90;;;;;;5073593;28;20051;-77
2022/12/03 12:01:41;;;;;;;16.17;12.30;;;8.40;99.90;;;;;;5074761;28;20393;-77
2022/12/03 12:04:29;;;;;;;18.05;11.20;;;8.50;99.90;;;;;;5073404;28;20059;-78
2022/12/03 12:06:55;;;;;;;23.10;12.52;;;8.60;99.90;;;;;;5074096;28;20434;-78
2022/12/03 12:09:48;;;;;;;17.88;11.27;;;8.60;99.90;;;;;;5074412;28;20071;-77
2022/12/03 12:12:43;;;;;;;20.40;13.00;;;8.60;99.90;;;;;;5076156;28;20089;-78
2022/12/03 12:15:34;;;;;;;18.35;11.27;;;8.50;99.90;;;;;;5073472;28;20047;-78
2022/12/03 12:18:38;;;;;;;16.00;11.98;;;8.40;99.90;;;;;;5066842;28;20059;-77
2022/12/03 12:21:41;;;;;;;16.98;12.27;;;8.50;99.90;;;;;;5069031;28;20040;-78
2022/12/03 12:24:29;;;;;;;18.27;11.75;;;8.50;99.90;;;;;;5071525;28;20029;-77
2022/12/03 12:26:56;;;;;;;19.00;12.65;;;8.40;99.90;;;;;;5073001;28;20405;-77
2022/12/03 12:29:22;;;;;;;17.55;11.65;;;8.40;99.90;;;;;;5069729;28;20103;-77
2022/12/03 12:31:48;;;;;;;16.92;10.98;;;8.40;99.90;;;;;;5076040;28;20169;-78
2022/12/03 12:34:14;;;;;;;16.40;12.32;;;8.40;99.90;;;;;;5072113;28;20155;-77
2022/12/03 12:36:40;;;;;;;14.88;10.85;;;8.40;99.90;;;;;;5074992;28;20541;-77
2022/12/03 12:39:14;;;;;;;14.90;10.02;;;8.40;99.90;;;;;;5068409;28;20128;-78
2022/12/03 12:41:41;;;;;;;11.55;8.98;;;8.30;99.90;;;;;;5068947;28;20036;-78
2022/12/03 12:44:10;;;;;;;11.45;8.98;;;8.20;99.90;;;;;;5062968;28;20025;-77
2022/12/03 12:46:37;;;;;;;12.40;9.07;;;8.20;99.90;;;;;;5061216;28;20029;-78
2022/12/03 12:49:13;;;;;;;12.10;8.48;;;8.10;99.90;;;;;;5064234;28;20028;-77
2022/12/03 12:51:48;;;;;;;11.90;8.68;;;8.10;99.90;;;;;;5066913;28;20399;-78
2022/12/03 12:54:16;;;;;;;10.98;8.25;;;8.20;99.90;;;;;;5065640;28;20047;-78
2022/12/03 12:56:48;;;;;;;10.32;8.20;;;8.10;99.90;;;;;;5062022;28;20100;-77
2022/12/03 12:59:23;;;;;;;13.75;8.10;;;8.10;99.90;;;;;;5066626;28;20074;-77
2022/12/03 13:01:49;;;;;;;12.50;8.70;;;8.10;99.90;;;;;;5067018;28;20040;-77
2022/12/03 13:04:22;;;;;;;16.10;9.20;;;8.10;99.90;;;;;;5072024;28;20025;-77
2022/12/03 13:06:52;;;;;;;11.50;8.98;;;8.10;99.90;;;;;;5068443;28;20029;-76